createdAt,value
2023-03-18T00:01:42.651Z,95715.53
2023-03-18T00:04:11.525Z,95712.56
2023-03-18T00:06:40.718Z,95708.56
2023-03-18T00:09:09.607Z,95710.47
2023-03-18T00:11:40.814Z,95716.38
2023-03-18T00:14:10.074Z,95713.28
2023-03-18T00:16:38.617Z,95717.63
2023-03-18T00:19:07.608Z,95722.81
2023-03-18T00:21:36.338Z,95723.88
2023-03-18T00:24:05.426Z,95724.16
2023-03-18T00:26:34.260Z,95723.53
2023-03-18T00:29:04.795Z,95726.06
2023-03-18T00:31:34.127Z,95728.50
2023-03-18T00:34:03.305Z,95718.56
2023-03-18T00:36:32.500Z,95716.03
2023-03-18T00:39:03.567Z,95714.56
2023-03-18T00:41:36.540Z,95712.31
2023-03-18T00:44:08.014Z,95712.75
2023-03-18T00:46:38.023Z,95720.72
2023-03-18T00:49:08.465Z,95716.84
2023-03-18T00:51:38.857Z,95713.03
2023-03-18T00:54:09.404Z,95712.03
2023-03-18T00:56:38.861Z,95706.88
2023-03-18T00:59:09.454Z,95705.97
2023-03-18T01:01:39.220Z,95704.25
2023-03-18T01:04:10.443Z,95704.44
2023-03-18T01:06:40.329Z,95702.69
2023-03-18T01:09:11.947Z,95698.53
2023-03-18T01:11:44.035Z,95696.84
2023-03-18T01:14:14.176Z,95697.63
2023-03-18T01:16:42.654Z,95705.16
2023-03-18T01:19:11.462Z,95702.00
2023-03-18T01:21:40.080Z,95709.50
2023-03-18T01:24:10.565Z,95712.84
2023-03-18T01:26:38.991Z,95712.03
2023-03-18T01:29:08.028Z,95713.75
2023-03-18T01:31:38.135Z,95721.25
2023-03-18T01:34:07.104Z,95709.75
2023-03-18T01:36:36.139Z,95697.78
2023-03-18T01:39:06.491Z,95718.28
2023-03-18T01:41:47.519Z,95720.34
2023-03-18T01:44:18.213Z,95732.22
2023-03-18T01:46:48.829Z,95725.84
2023-03-18T01:49:19.501Z,95726.22
2023-03-18T01:51:50.575Z,95739.78
2023-03-18T01:54:21.097Z,95746.66
2023-03-18T01:56:51.958Z,95740.88
2023-03-18T01:59:21.806Z,95746.81
2023-03-18T02:01:57.536Z,95748.47
2023-03-18T02:04:31.435Z,95743.50
2023-03-18T02:07:01.538Z,95747.00
2023-03-18T02:09:31.131Z,95757.41
2023-03-18T02:11:59.936Z,95765.97
2023-03-18T02:14:30.908Z,95767.00
2023-03-18T02:17:03.291Z,95767.88
2023-03-18T02:19:47.253Z,95771.41
2023-03-18T02:22:27.622Z,95772.19
2023-03-18T02:25:09.089Z,95785.13
2023-03-18T02:27:43.137Z,95778.59
2023-03-18T02:30:14.933Z,95784.75
2023-03-18T02:32:43.997Z,95784.56
2023-03-18T02:35:13.759Z,95791.34
2023-03-18T02:37:42.560Z,95793.88
2023-03-18T02:40:16.314Z,95799.03
2023-03-18T02:42:46.937Z,95804.25
2023-03-18T02:45:28.052Z,95812.75
2023-03-18T02:47:57.452Z,95802.88
2023-03-18T02:50:26.158Z,95799.59
2023-03-18T02:52:54.835Z,95810.81
2023-03-18T02:55:23.405Z,95809.00
2023-03-18T02:57:53.503Z,95811.63
2023-03-18T03:00:22.266Z,95814.06
2023-03-18T03:02:51.408Z,95815.06
2023-03-18T03:05:20.893Z,95820.44
2023-03-18T03:07:49.676Z,95825.50
2023-03-18T03:10:18.572Z,95831.16
2023-03-18T03:12:47.761Z,95833.69
2023-03-18T03:15:17.803Z,95835.78
2023-03-18T03:17:47.489Z,95826.06
2023-03-18T03:20:18.424Z,95837.31
2023-03-18T03:22:47.434Z,95827.34
2023-03-18T03:25:16.378Z,95828.72
2023-03-18T03:27:45.099Z,95835.00
2023-03-18T03:30:14.704Z,95840.59
2023-03-18T03:32:46.101Z,95834.94
2023-03-18T03:35:18.963Z,95841.38
2023-03-18T03:37:48.312Z,95840.78
2023-03-18T03:40:19.141Z,95826.13
2023-03-18T03:42:48.103Z,95834.75
2023-03-18T03:45:18.768Z,95834.91
2023-03-18T03:47:49.247Z,95846.78
2023-03-18T03:50:18.683Z,95850.38
2023-03-18T03:55:30.059Z,95840.41
2023-03-18T03:57:58.637Z,95854.97
2023-03-18T04:00:27.597Z,95850.66
2023-03-18T04:03:04.160Z,95866.41
2023-03-18T04:05:33.088Z,95869.16
2023-03-18T04:08:01.536Z,95862.84
2023-03-18T04:10:30.895Z,95865.50
2023-03-18T04:12:59.770Z,95868.97
2023-03-18T04:15:28.733Z,95870.16
2023-03-18T04:17:57.524Z,95868.69
2023-03-18T04:20:27.807Z,95872.91
2023-03-18T04:22:56.395Z,95867.09
2023-03-18T04:25:25.090Z,95872.16
2023-03-18T04:27:54.144Z,95874.00
2023-03-18T04:30:25.709Z,95877.69
2023-03-18T04:32:55.095Z,95869.81
2023-03-18T04:35:24.609Z,95869.13
2023-03-18T04:37:55.010Z,95869.91
2023-03-18T04:40:23.677Z,95876.75
2023-03-18T04:42:52.534Z,95870.06
2023-03-18T04:45:21.372Z,95876.75
2023-03-18T04:47:49.816Z,95886.03
2023-03-18T04:50:19.445Z,95887.66
2023-03-18T04:52:48.440Z,95889.41
2023-03-18T04:55:20.869Z,95883.59
2023-03-18T04:57:50.884Z,95896.28
2023-03-18T05:00:22.165Z,95892.16
2023-03-18T05:02:51.759Z,95897.44
2023-03-18T05:05:21.383Z,95890.78
2023-03-18T05:07:49.945Z,95901.78
2023-03-18T05:10:20.437Z,95896.94
2023-03-18T05:12:50.091Z,95893.06
2023-03-18T05:15:18.736Z,95904.56
2023-03-18T05:17:47.708Z,95907.78
2023-03-18T05:20:16.340Z,95906.00
2023-03-18T05:22:45.290Z,95906.75
2023-03-18T05:25:14.174Z,95909.22
2023-03-18T05:27:44.671Z,95907.31
2023-03-18T05:30:15.554Z,95901.38
2023-03-18T05:32:44.667Z,95902.03
2023-03-18T05:35:13.469Z,95910.50
2023-03-18T05:37:43.689Z,95908.00
2023-03-18T05:40:13.594Z,95910.28
2023-03-18T05:42:55.919Z,95906.22
2023-03-18T05:45:25.292Z,95910.03
2023-03-18T05:47:53.921Z,95906.34
2023-03-18T05:50:47.184Z,95908.59
2023-03-18T05:53:16.894Z,95912.53
2023-03-18T05:55:45.514Z,95918.34
2023-03-18T05:58:15.565Z,95910.38
2023-03-18T06:00:44.593Z,95912.50
2023-03-18T06:03:13.680Z,95918.25
2023-03-18T06:05:42.386Z,95917.06
2023-03-18T06:08:11.094Z,95920.03
2023-03-18T06:10:42.196Z,95929.72
2023-03-18T06:13:12.474Z,95931.84
2023-03-18T06:15:48.918Z,95936.81
2023-03-18T06:18:17.697Z,95928.16
2023-03-18T06:20:46.301Z,95922.59
2023-03-18T06:23:15.274Z,95920.41
2023-03-18T06:25:44.127Z,95926.91
2023-03-18T06:28:13.136Z,95923.44
2023-03-18T06:30:41.641Z,95928.94
2023-03-18T06:33:23.774Z,95929.31
2023-03-18T06:35:52.901Z,95929.75
2023-03-18T06:38:21.890Z,95932.63
2023-03-18T06:40:50.673Z,95937.06
2023-03-18T06:43:19.000Z,95927.31
2023-03-18T06:45:47.806Z,95932.53
2023-03-18T06:48:17.626Z,95931.34
2023-03-18T06:50:47.914Z,95925.88
2023-03-18T06:53:16.522Z,95930.69
2023-03-18T06:55:45.114Z,95935.97
2023-03-18T06:58:13.636Z,95932.22
2023-03-18T07:00:45.465Z,95938.25
2023-03-18T07:03:15.763Z,95935.72
2023-03-18T07:05:44.519Z,95938.72
2023-03-18T07:08:15.888Z,95944.63
2023-03-18T07:10:44.654Z,95945.94
2023-03-18T07:13:13.586Z,95948.47
2023-03-18T07:15:43.873Z,95952.78
2023-03-18T07:18:12.615Z,95949.03
2023-03-18T07:20:42.150Z,95947.53
2023-03-18T07:23:11.640Z,95948.69
2023-03-18T07:25:42.386Z,95945.28
2023-03-18T07:28:11.244Z,95952.72
2023-03-18T07:30:44.310Z,95947.63
2023-03-18T07:33:13.163Z,95950.34
2023-03-18T07:35:42.038Z,95950.16
2023-03-18T07:38:11.400Z,95954.44
2023-03-18T07:40:41.495Z,95960.44
2023-03-18T07:43:10.426Z,95948.97
2023-03-18T07:45:39.482Z,95954.31
2023-03-18T07:48:08.576Z,95953.06
2023-03-18T07:50:36.944Z,95955.22
2023-03-18T07:53:05.797Z,95960.38
2023-03-18T07:55:35.693Z,95966.28
2023-03-18T07:58:07.848Z,95966.16
2023-03-18T08:00:37.183Z,95967.50
2023-03-18T08:03:07.657Z,95976.06
2023-03-18T08:05:36.499Z,95950.09
2023-03-18T08:08:07.964Z,95972.16
2023-03-18T08:10:36.849Z,95972.13
2023-03-18T08:13:06.799Z,95965.34
2023-03-18T08:15:35.466Z,95971.56
2023-03-18T08:18:04.152Z,95963.66
2023-03-18T08:20:32.778Z,95968.75
2023-03-18T08:23:01.706Z,95976.50
2023-03-18T08:25:30.575Z,95968.66
2023-03-18T08:27:59.514Z,95964.50
2023-03-18T08:30:30.737Z,95973.13
2023-03-18T08:32:59.643Z,95965.75
2023-03-18T08:35:28.542Z,95961.91
2023-03-18T08:37:57.369Z,95937.50
2023-03-18T08:40:26.341Z,95964.09
2023-03-18T08:42:55.263Z,95962.81
2023-03-18T08:45:27.544Z,95956.44
2023-03-18T08:47:57.557Z,95947.91
2023-03-18T08:50:28.874Z,95962.19
2023-03-18T08:52:58.960Z,95958.34
2023-03-18T08:55:31.676Z,95955.47
2023-03-18T08:58:00.331Z,95956.47
2023-03-18T09:00:29.811Z,95959.69
2023-03-18T09:03:00.227Z,95960.78
2023-03-18T09:05:29.070Z,95952.44
2023-03-18T09:07:58.487Z,95953.56
2023-03-18T09:10:27.454Z,95955.81
2023-03-18T09:12:56.137Z,95948.00
2023-03-18T09:15:25.068Z,95952.38
2023-03-18T09:18:10.234Z,95932.75
2023-03-18T09:20:41.680Z,95954.78
2023-03-18T09:23:11.648Z,95951.41
2023-03-18T09:25:40.518Z,95947.53
2023-03-18T09:28:09.022Z,95952.38
2023-03-18T09:30:38.062Z,95950.50
2023-03-18T09:33:07.997Z,95944.84
2023-03-18T09:35:37.354Z,95945.22
2023-03-18T09:38:08.361Z,95948.00
2023-03-18T09:40:38.879Z,95949.38
2023-03-18T09:43:18.510Z,95944.66
2023-03-18T09:45:57.400Z,95943.72
2023-03-18T09:49:15.249Z,95944.28
2023-03-18T09:51:52.273Z,95947.91
2023-03-18T09:54:26.786Z,95943.03
2023-03-18T09:56:56.391Z,95943.53
2023-03-18T09:59:28.956Z,95945.03
2023-03-18T10:02:01.095Z,95942.78
2023-03-18T10:04:34.854Z,95946.06
2023-03-18T10:07:06.059Z,95943.72
2023-03-18T10:09:38.217Z,95941.44
2023-03-18T10:12:15.167Z,95938.16
2023-03-18T10:14:49.305Z,95935.00
2023-03-18T10:17:20.774Z,95932.13
2023-03-18T10:19:52.195Z,95938.69
2023-03-18T10:22:45.749Z,95931.59
2023-03-18T10:25:21.251Z,95926.28
2023-03-18T10:28:02.260Z,95929.97
2023-03-18T10:30:45.100Z,95940.97
2023-03-18T10:33:21.229Z,95934.59
2023-03-18T10:35:53.286Z,95928.69
2023-03-18T10:38:26.735Z,95932.06
2023-03-18T10:40:57.244Z,95934.28
2023-03-18T10:43:28.995Z,95926.50
2023-03-18T10:46:02.336Z,95925.31
2023-03-18T10:48:33.856Z,95924.81
2023-03-18T10:51:21.510Z,95928.69
2023-03-18T10:53:56.215Z,95934.44
2023-03-18T10:56:26.497Z,95922.72
2023-03-18T10:58:56.640Z,95925.41
2023-03-18T11:01:29.066Z,95933.00
2023-03-18T11:04:03.481Z,95928.16
2023-03-18T11:06:38.477Z,95927.16
2023-03-18T11:09:09.455Z,95930.69
2023-03-18T11:11:41.814Z,95919.72
2023-03-18T11:14:21.043Z,95923.09
2023-03-18T11:16:52.131Z,95919.75
2023-03-18T11:19:32.483Z,95917.91
2023-03-18T11:22:04.710Z,95913.72
2023-03-18T11:24:42.816Z,95918.47
2023-03-18T11:27:28.961Z,95912.00
2023-03-18T11:30:00.913Z,95911.16
2023-03-18T11:32:31.568Z,95909.69
2023-03-18T11:35:02.407Z,95913.88
2023-03-18T11:37:37.114Z,95905.63
2023-03-18T11:40:18.912Z,95905.69
2023-03-18T11:42:49.933Z,95879.97
2023-03-18T11:45:32.051Z,95897.06
2023-03-18T11:48:01.028Z,95896.13
2023-03-18T11:50:39.616Z,95893.66
2023-03-18T11:53:12.985Z,95885.03
2023-03-18T11:55:45.739Z,95882.25
2023-03-18T11:58:31.571Z,95883.72
2023-03-18T12:01:05.729Z,95884.63
2023-03-18T12:03:50.435Z,95876.91
2023-03-18T12:06:23.352Z,95871.19
2023-03-18T12:09:01.823Z,95864.03
2023-03-18T12:11:42.111Z,95867.28
2023-03-18T12:14:30.864Z,95868.56
2023-03-18T12:17:06.739Z,95866.63
2023-03-18T12:19:59.202Z,95863.91
2023-03-18T12:22:49.800Z,95860.41
2023-03-18T12:25:53.580Z,95866.34
2023-03-18T12:28:33.126Z,95864.81
2023-03-18T12:31:08.658Z,95872.59
2023-03-18T12:33:55.166Z,95873.22
2023-03-18T12:36:42.438Z,95873.41
2023-03-18T12:39:53.049Z,95873.13
2023-03-18T12:42:31.568Z,95872.16
2023-03-18T12:45:02.271Z,95871.63
2023-03-18T12:47:37.468Z,95864.72
2023-03-18T12:50:11.075Z,95858.91
2023-03-18T12:52:44.101Z,95861.38
2023-03-18T12:55:16.149Z,95861.38
2023-03-18T12:57:49.804Z,95861.19
2023-03-18T13:00:25.513Z,95854.66
2023-03-18T13:03:00.246Z,95858.91
2023-03-18T13:05:38.468Z,95857.03
2023-03-18T13:08:39.485Z,95855.22
2023-03-18T13:11:16.802Z,95852.00
2023-03-18T13:13:48.650Z,95856.31
2023-03-18T13:16:17.621Z,95852.69
2023-03-18T13:19:03.485Z,95849.47
2023-03-18T13:21:33.338Z,95857.25
2023-03-18T13:24:37.907Z,95850.69
2023-03-18T13:27:18.008Z,95848.63
2023-03-18T13:30:13.108Z,95849.72
2023-03-18T13:32:51.189Z,95846.31
2023-03-18T13:35:55.515Z,95843.94
2023-03-18T13:39:07.175Z,95847.66
2023-03-18T13:41:46.833Z,95846.84
2023-03-18T13:44:18.387Z,95848.53
2023-03-18T13:46:55.462Z,95844.25
2023-03-18T13:49:26.699Z,95846.44
2023-03-18T13:52:04.170Z,95849.63
2023-03-18T13:54:38.417Z,95842.94
2023-03-18T13:57:19.952Z,95847.63
2023-03-18T13:59:49.620Z,95851.63
2023-03-18T14:02:43.811Z,95848.38
2023-03-18T14:05:40.526Z,95847.22
2023-03-18T14:08:47.613Z,95843.44
2023-03-18T14:11:51.443Z,95839.25
2023-03-18T14:15:08.615Z,95846.31
2023-03-18T14:17:46.828Z,95843.78
2023-03-18T14:20:24.791Z,95841.88
2023-03-18T14:22:54.996Z,95836.78
2023-03-18T14:25:42.421Z,95836.66
2023-03-18T14:28:21.481Z,95836.00
2023-03-18T14:30:56.747Z,95835.50
2023-03-18T14:33:36.126Z,95833.06
2023-03-18T14:36:10.152Z,95821.16
2023-03-18T14:38:47.945Z,95824.66
2023-03-18T14:41:24.028Z,95819.09
2023-03-18T14:44:17.476Z,95816.75
2023-03-18T14:46:50.323Z,95819.34
2023-03-18T14:49:40.131Z,95808.81
2023-03-18T14:52:30.348Z,95817.59
2023-03-18T14:55:01.015Z,95815.41
2023-03-18T14:57:31.038Z,95813.28
2023-03-18T15:00:06.918Z,95808.06
2023-03-18T15:02:37.704Z,95804.97
2023-03-18T15:05:08.219Z,95804.25
2023-03-18T15:07:38.633Z,95808.59
2023-03-18T15:10:10.933Z,95805.84
2023-03-18T15:12:39.656Z,95788.75
2023-03-18T15:15:16.427Z,95798.88
2023-03-18T15:17:47.713Z,95798.63
2023-03-18T15:20:17.094Z,95796.78
2023-03-18T15:22:46.250Z,95789.66
2023-03-18T15:25:20.727Z,95789.13
2023-03-18T15:27:52.409Z,95794.53
2023-03-18T15:30:30.445Z,95798.47
2023-03-18T15:33:07.366Z,95801.50
2023-03-18T15:35:36.410Z,95799.38
2023-03-18T15:38:16.287Z,95798.91
2023-03-18T15:40:49.766Z,95794.03
2023-03-18T15:43:22.657Z,95793.38
2023-03-18T15:45:57.866Z,95799.78
2023-03-18T15:48:31.164Z,95793.94
2023-03-18T15:51:01.869Z,95798.88
2023-03-18T15:53:35.760Z,95803.97
2023-03-18T15:56:17.177Z,95795.16
2023-03-18T15:58:46.354Z,95806.28
2023-03-18T16:01:19.858Z,95801.25
2023-03-18T16:03:48.528Z,95798.66
2023-03-18T16:06:18.035Z,95803.03
2023-03-18T16:08:46.771Z,95802.84
2023-03-18T16:11:19.082Z,95806.25
2023-03-18T16:13:47.735Z,95811.59
2023-03-18T16:16:21.007Z,95807.78
2023-03-18T16:18:49.781Z,95803.13
2023-03-18T16:21:18.940Z,95804.31
2023-03-18T16:23:48.126Z,95816.19
2023-03-18T16:26:18.471Z,95819.22
2023-03-18T16:28:48.617Z,95822.31
2023-03-18T16:31:19.047Z,95816.06
2023-03-18T16:33:52.857Z,95815.91
2023-03-18T16:36:31.116Z,95819.50
2023-03-18T16:39:00.111Z,95821.94
2023-03-18T16:41:28.685Z,95828.94
2023-03-18T16:43:57.456Z,95831.47
2023-03-18T16:46:27.941Z,95836.94
2023-03-18T16:48:57.459Z,95841.56
2023-03-18T16:51:26.525Z,95842.72
2023-03-18T16:53:55.458Z,95836.19
2023-03-18T16:56:24.300Z,95842.19
2023-03-18T16:58:53.070Z,95843.25
2023-03-18T17:01:24.838Z,95851.44
2023-03-18T17:04:22.397Z,95848.78
2023-03-18T17:06:51.591Z,95833.06
2023-03-18T17:09:20.656Z,95853.38
2023-03-18T17:11:50.116Z,95850.94
2023-03-18T17:14:33.976Z,95848.50
2023-03-18T17:17:04.942Z,95853.19
2023-03-18T17:19:35.366Z,95853.00
2023-03-18T17:22:04.376Z,95862.66
2023-03-18T17:24:34.436Z,95862.16
2023-03-18T17:27:03.363Z,95862.22
2023-03-18T17:29:32.457Z,95866.44
2023-03-18T17:32:02.017Z,95867.91
2023-03-18T17:34:34.344Z,95870.00
2023-03-18T17:37:04.438Z,95876.16
2023-03-18T17:39:32.946Z,95873.53
2023-03-18T17:42:02.345Z,95884.19
2023-03-18T17:44:31.265Z,95881.81
2023-03-18T17:46:59.748Z,95887.47
2023-03-18T17:49:29.052Z,95882.94
2023-03-18T17:51:57.801Z,95881.59
2023-03-18T17:54:31.934Z,95873.69
2023-03-18T17:57:03.620Z,95874.19
2023-03-18T17:59:33.182Z,95864.34
2023-03-18T18:02:02.337Z,95866.06
2023-03-18T18:04:31.486Z,95866.75
2023-03-18T18:07:00.230Z,95861.78
2023-03-18T18:09:28.962Z,95866.53
2023-03-18T18:11:59.297Z,95864.66
2023-03-18T18:14:31.984Z,95866.53
2023-03-18T18:17:00.809Z,95865.16
2023-03-18T18:19:29.397Z,95869.22
2023-03-18T18:24:47.526Z,95870.22
2023-03-18T18:27:17.549Z,95876.84
2023-03-18T18:29:46.120Z,95872.41
2023-03-18T18:32:15.734Z,95872.03
2023-03-18T18:34:47.137Z,95872.41
2023-03-18T18:37:15.874Z,95857.50
2023-03-18T18:39:44.450Z,95860.41
2023-03-18T18:42:14.185Z,95866.56
2023-03-18T18:44:44.286Z,95864.81
2023-03-18T18:47:19.070Z,95874.75
2023-03-18T18:49:48.323Z,95875.44
2023-03-18T18:52:17.335Z,95880.06
2023-03-18T18:54:46.593Z,95879.88
2023-03-18T18:57:25.634Z,95874.41
2023-03-18T18:59:55.854Z,95880.09
2023-03-18T19:02:31.686Z,95876.06
2023-03-18T19:05:02.547Z,95878.00
2023-03-18T19:07:32.144Z,95882.94
2023-03-18T19:10:00.946Z,95893.50
2023-03-18T19:12:29.964Z,95884.78
2023-03-18T19:15:00.207Z,95895.41
2023-03-18T19:17:29.338Z,95890.00
2023-03-18T19:19:58.604Z,95883.41
2023-03-18T19:22:29.871Z,95893.91
2023-03-18T19:24:58.873Z,95894.22
2023-03-18T19:27:29.032Z,95891.19
2023-03-18T19:30:01.160Z,95884.66
2023-03-18T19:32:30.361Z,95892.13
2023-03-18T19:34:59.198Z,95886.19
2023-03-18T19:37:34.052Z,95890.41
2023-03-18T19:40:04.755Z,95885.91
2023-03-18T19:42:34.314Z,95886.91
2023-03-18T19:45:04.634Z,95884.25
2023-03-18T19:47:33.858Z,95884.03
2023-03-18T19:50:03.290Z,95877.81
2023-03-18T19:52:33.886Z,95876.59
2023-03-18T19:55:08.513Z,95871.38
2023-03-18T19:57:37.673Z,95882.41
2023-03-18T20:00:19.433Z,95879.38
2023-03-18T20:02:50.254Z,95872.56
2023-03-18T20:05:21.868Z,95852.41
2023-03-18T20:07:51.190Z,95876.44
2023-03-18T20:10:21.323Z,95876.34
2023-03-18T20:12:51.057Z,95881.25
2023-03-18T20:15:27.454Z,95874.28
2023-03-18T20:17:56.504Z,95870.84
2023-03-18T20:20:27.242Z,95876.72
2023-03-18T20:22:58.593Z,95868.50
2023-03-18T20:25:34.324Z,95871.97
2023-03-18T20:28:04.869Z,95873.06
2023-03-18T20:30:36.460Z,95875.84
2023-03-18T20:33:09.544Z,95873.50
2023-03-18T20:35:40.270Z,95864.31
2023-03-18T20:38:15.863Z,95860.25
2023-03-18T20:40:47.862Z,95872.50
2023-03-18T20:43:17.377Z,95875.25
2023-03-18T20:45:47.601Z,95872.09
2023-03-18T20:48:19.680Z,95863.84
2023-03-18T20:50:48.825Z,95863.84
2023-03-18T20:53:19.487Z,95860.78
2023-03-18T20:55:52.083Z,95859.53
2023-03-18T20:58:22.344Z,95857.28
2023-03-18T21:00:53.260Z,95858.31
2023-03-18T21:03:25.010Z,95851.38
2023-03-18T21:05:56.425Z,95860.75
2023-03-18T21:08:26.220Z,95862.47
2023-03-18T21:10:55.652Z,95858.63
2023-03-18T21:13:29.281Z,95860.34
2023-03-18T21:16:00.272Z,95858.91
2023-03-18T21:18:29.841Z,95857.28
2023-03-18T21:20:58.806Z,95859.09
2023-03-18T21:23:29.360Z,95858.50
2023-03-18T21:25:58.419Z,95857.78
2023-03-18T21:28:29.849Z,95859.69
2023-03-18T21:31:01.627Z,95866.81
2023-03-18T21:33:35.486Z,95862.16
2023-03-18T21:36:08.054Z,95860.19
2023-03-18T21:38:39.721Z,95865.47
2023-03-18T21:41:20.668Z,95863.31
2023-03-18T21:43:50.350Z,95860.44
2023-03-18T21:46:22.227Z,95861.03
2023-03-18T21:48:51.180Z,95869.25
2023-03-18T21:51:37.907Z,95865.63
2023-03-18T21:54:07.367Z,95859.84
2023-03-18T21:56:36.068Z,95861.66
2023-03-18T21:59:05.328Z,95863.78
2023-03-18T22:01:35.769Z,95860.97
2023-03-18T22:04:04.317Z,95857.91
2023-03-18T22:06:33.678Z,95854.66
2023-03-18T22:09:02.484Z,95847.94
2023-03-18T22:11:31.647Z,95852.09
2023-03-18T22:14:00.534Z,95861.38
2023-03-18T22:16:35.378Z,95855.47
2023-03-18T22:19:04.358Z,95858.09
2023-03-18T22:21:47.059Z,95855.66
2023-03-18T22:24:16.148Z,95856.66
2023-03-18T22:26:44.956Z,95853.38
2023-03-18T22:29:13.592Z,95844.16
2023-03-18T22:31:43.816Z,95837.72
2023-03-18T22:34:19.670Z,95844.34
2023-03-18T22:36:48.377Z,95844.81
2023-03-18T22:39:17.071Z,95845.19
2023-03-18T22:41:45.878Z,95830.06
2023-03-18T22:44:21.841Z,95825.84
2023-03-18T22:46:52.017Z,95837.56
2023-03-18T22:49:20.606Z,95825.66
2023-03-18T22:51:49.207Z,95824.97
2023-03-18T22:55:08.407Z,95823.19
2023-03-18T22:57:37.227Z,95823.00
2023-03-18T23:00:19.252Z,95828.16
2023-03-18T23:02:50.421Z,95827.53
2023-03-18T23:05:20.477Z,95825.81
2023-03-18T23:07:49.447Z,95828.25
2023-03-18T23:10:18.847Z,95824.81
2023-03-18T23:12:47.773Z,95822.47
2023-03-18T23:15:18.365Z,95827.63
2023-03-18T23:17:49.346Z,95822.47
2023-03-18T23:20:19.575Z,95819.03
2023-03-18T23:22:48.182Z,95829.00
2023-03-18T23:25:19.005Z,95833.25
2023-03-18T23:27:47.894Z,95837.69
2023-03-18T23:30:17.002Z,95843.84
2023-03-18T23:32:45.972Z,95849.09
2023-03-18T23:35:17.038Z,95847.59
2023-03-18T23:37:45.761Z,95843.13
2023-03-18T23:40:15.661Z,95855.09
2023-03-18T23:42:43.945Z,95851.03
2023-03-18T23:45:13.248Z,95863.78
2023-03-18T23:47:42.082Z,95855.09
2023-03-18T23:50:12.267Z,95856.34
2023-03-18T23:52:42.085Z,95859.97
2023-03-18T23:55:30.863Z,95851.53
2023-03-18T23:57:59.396Z,95863.16
